createdAt,value
2019-02-14T00:02:12.785Z,68.77
2019-02-14T00:04:43.339Z,70.02
2019-02-14T00:07:13.951Z,69.24
2019-02-14T00:09:44.403Z,69.84
2019-02-14T00:12:14.824Z,69.74
2019-02-14T00:14:45.787Z,69.68
2019-02-14T00:17:16.343Z,70.35
2019-02-14T00:19:47.109Z,69.96
2019-02-14T00:22:17.447Z,68.82
2019-02-14T00:24:47.764Z,69.99
2019-02-14T00:27:18.148Z,68.94
2019-02-14T00:29:49.592Z,69.82
2019-02-14T00:32:20.117Z,69.13
2019-02-14T00:34:50.714Z,69.33
2019-02-14T00:37:21.492Z,70.04
2019-02-14T00:39:52.230Z,70.48
2019-02-14T00:42:22.897Z,70.48
2019-02-14T00:44:53.321Z,70.58
2019-02-14T00:47:23.991Z,70.96
2019-02-14T00:49:54.565Z,70.61
2019-02-14T00:52:25.240Z,68.91
2019-02-14T00:54:56.044Z,70.30
2019-02-14T00:57:27.230Z,70.67
2019-02-14T00:59:57.640Z,70.92
2019-02-14T01:02:28.068Z,71.38
2019-02-14T01:04:58.434Z,71.42
2019-02-14T01:07:28.927Z,70.55
2019-02-14T01:09:59.495Z,71.00
2019-02-14T01:12:30.270Z,71.31
2019-02-14T01:15:01.178Z,70.94
2019-02-14T01:17:31.805Z,70.52
2019-02-14T01:20:02.674Z,71.34
2019-02-14T01:22:34.223Z,71.43
2019-02-14T01:25:05.080Z,70.55
2019-02-14T01:27:35.862Z,71.37
2019-02-14T01:30:07.475Z,71.73
2019-02-14T01:32:38.209Z,72.25
2019-02-14T01:35:09.988Z,72.30
2019-02-14T01:37:40.907Z,71.73
2019-02-14T01:40:11.167Z,71.75
2019-02-14T01:42:41.850Z,72.12
2019-02-14T01:45:12.403Z,71.95
2019-02-14T01:47:43.195Z,71.88
2019-02-14T01:50:13.531Z,71.69
2019-02-14T01:52:44.138Z,71.67
2019-02-14T01:55:14.622Z,71.71
2019-02-14T01:57:45.206Z,71.90
2019-02-14T02:00:16.801Z,72.60
2019-02-14T02:02:47.564Z,72.74
2019-02-14T02:05:18.281Z,72.74
2019-02-14T02:07:48.994Z,73.26
2019-02-14T02:10:19.975Z,73.51
2019-02-14T02:12:50.634Z,73.70
2019-02-14T02:15:21.250Z,74.33
2019-02-14T02:17:52.008Z,73.04
2019-02-14T02:20:22.601Z,74.15
2019-02-14T02:22:53.356Z,74.55
2019-02-14T02:25:24.610Z,74.86
2019-02-14T02:27:55.284Z,74.97
2019-02-14T02:30:25.804Z,74.37
2019-02-14T02:32:56.963Z,74.72
2019-02-14T02:35:27.471Z,75.15
2019-02-14T02:37:58.034Z,75.29
2019-02-14T02:40:28.553Z,75.09
2019-02-14T02:42:59.386Z,75.17
2019-02-14T02:45:30.153Z,75.52
2019-02-14T02:48:00.968Z,75.58
2019-02-14T02:50:31.553Z,75.80
2019-02-14T02:53:02.238Z,75.66
2019-02-14T02:55:32.511Z,75.85
2019-02-14T02:58:03.213Z,75.82
2019-02-14T03:00:33.828Z,75.70
2019-02-14T03:03:05.636Z,75.86
2019-02-14T03:05:36.469Z,75.77
2019-02-14T03:08:07.152Z,75.59
2019-02-14T03:10:39.026Z,75.42
2019-02-14T03:13:09.819Z,75.61
2019-02-14T03:15:40.415Z,75.53
2019-02-14T03:18:10.775Z,75.54
2019-02-14T03:20:41.420Z,75.47
2019-02-14T03:23:13.126Z,75.67
2019-02-14T03:25:43.713Z,75.60
2019-02-14T03:28:14.540Z,75.82
2019-02-14T03:30:45.251Z,75.74
2019-02-14T03:33:15.833Z,76.00
2019-02-14T03:35:46.575Z,76.23
2019-02-14T03:38:17.309Z,76.35
2019-02-14T03:40:48.138Z,76.67
2019-02-14T03:43:18.860Z,76.74
2019-02-14T03:45:50.589Z,76.92
2019-02-14T03:48:21.261Z,76.84
2019-02-14T03:50:52.072Z,77.04
2019-02-14T03:53:22.973Z,77.36
2019-02-14T03:55:53.757Z,77.29
2019-02-14T03:58:24.646Z,77.46
2019-02-14T04:00:55.909Z,77.23
2019-02-14T04:03:26.767Z,77.62
2019-02-14T04:05:57.542Z,77.68
2019-02-14T04:08:28.134Z,77.90
2019-02-14T04:10:58.835Z,77.97
2019-02-14T04:13:29.756Z,78.11
2019-02-14T04:16:00.422Z,78.23
2019-02-14T04:18:31.192Z,78.34
2019-02-14T04:21:01.974Z,78.28
2019-02-14T04:23:32.389Z,78.23
2019-02-14T04:26:03.517Z,78.45
2019-02-14T04:28:34.330Z,78.57
2019-02-14T04:31:05.172Z,78.78
2019-02-14T04:33:36.077Z,78.97
2019-02-14T04:36:07.132Z,78.97
2019-02-14T04:38:37.920Z,79.03
2019-02-14T04:41:09.028Z,79.03
2019-02-14T04:43:39.936Z,78.98
2019-02-14T04:46:10.859Z,79.01
2019-02-14T04:48:41.999Z,79.07
2019-02-14T04:51:12.834Z,79.21
2019-02-14T04:53:43.912Z,79.29
2019-02-14T04:56:15.022Z,79.37
2019-02-14T04:58:45.982Z,79.42
2019-02-14T05:01:17.030Z,79.39
2019-02-14T05:03:47.797Z,79.49
2019-02-14T05:06:18.354Z,79.48
2019-02-14T05:08:49.141Z,79.46
2019-02-14T05:11:20.047Z,79.52
2019-02-14T05:13:50.654Z,79.56
2019-02-14T05:16:21.474Z,79.43
2019-02-14T05:18:52.211Z,79.28
2019-02-14T05:21:22.806Z,79.13
2019-02-14T05:23:54.248Z,79.28
2019-02-14T05:26:24.844Z,79.31
2019-02-14T05:28:55.573Z,78.92
2019-02-14T05:31:26.053Z,78.96
2019-02-14T05:33:56.878Z,78.64
2019-02-14T05:36:27.727Z,78.33
2019-02-14T05:38:58.692Z,78.40
2019-02-14T05:41:29.444Z,78.06
2019-02-14T05:43:59.925Z,77.87
2019-02-14T05:46:31.587Z,77.68
2019-02-14T05:49:02.805Z,77.47
2019-02-14T05:51:33.851Z,77.50
2019-02-14T05:54:04.749Z,77.21
2019-02-14T05:56:35.181Z,77.09
2019-02-14T05:59:05.647Z,77.19
2019-02-14T06:01:36.995Z,77.36
2019-02-14T06:04:07.725Z,77.39
2019-02-14T06:06:38.407Z,77.25
2019-02-14T06:09:09.199Z,77.34
2019-02-14T06:11:39.982Z,77.25
2019-02-14T06:14:10.414Z,77.26
2019-02-14T06:16:42.303Z,77.17
2019-02-14T06:19:13.079Z,77.27
2019-02-14T06:21:43.574Z,77.14
2019-02-14T06:24:14.341Z,76.70
2019-02-14T06:26:45.743Z,76.68
2019-02-14T06:29:17.013Z,76.41
2019-02-14T06:31:47.816Z,76.10
2019-02-14T06:34:18.522Z,76.20
2019-02-14T06:36:51.943Z,76.23
2019-02-14T06:39:22.307Z,76.22
2019-02-14T06:41:52.959Z,76.08
2019-02-14T06:44:23.392Z,75.97
2019-02-14T06:46:54.556Z,75.73
2019-02-14T06:49:25.341Z,75.37
2019-02-14T06:51:56.055Z,75.12
2019-02-14T06:54:27.036Z,74.85
2019-02-14T06:56:57.698Z,74.78
2019-02-14T06:59:28.891Z,74.49
2019-02-14T07:01:59.386Z,74.44
2019-02-14T07:04:30.273Z,74.27
2019-02-14T07:07:02.125Z,74.18
2019-02-14T07:09:32.899Z,74.16
2019-02-14T07:12:03.828Z,73.91
2019-02-14T07:14:35.091Z,73.72
2019-02-14T07:17:05.587Z,73.37
2019-02-14T07:19:37.183Z,73.61
2019-02-14T07:22:08.867Z,73.48
2019-02-14T07:24:39.677Z,73.11
2019-02-14T07:27:10.521Z,72.75
2019-02-14T07:29:41.797Z,72.32
2019-02-14T07:32:12.778Z,71.50
2019-02-14T07:34:43.412Z,71.05
2019-02-14T07:37:13.922Z,70.59
2019-02-14T07:39:44.153Z,70.39
2019-02-14T07:42:15.208Z,69.88
2019-02-14T07:44:46.169Z,69.83
2019-02-14T07:47:16.935Z,69.81
2019-02-14T07:49:47.616Z,69.75
2019-02-14T07:52:25.032Z,69.67
2019-02-14T07:54:51.505Z,69.95
2019-02-14T07:57:22.474Z,69.29
2019-02-14T07:59:54.395Z,69.75
2019-02-14T08:02:25.821Z,69.75
2019-02-14T08:04:56.725Z,69.58
2019-02-14T08:07:35.433Z,69.97
2019-02-14T08:09:59.913Z,69.93
2019-02-14T08:12:31.129Z,69.72
2019-02-14T08:15:01.808Z,69.75
2019-02-14T08:17:33.617Z,69.44
2019-02-14T08:20:05.039Z,69.33
2019-02-14T08:22:35.597Z,69.20
2019-02-14T08:25:07.661Z,69.44
2019-02-14T08:27:38.731Z,68.72
2019-02-14T08:30:11.937Z,69.21
2019-02-14T08:32:42.640Z,69.15
2019-02-14T08:35:13.806Z,68.76
2019-02-14T08:37:45.879Z,68.48
2019-02-14T08:40:19.510Z,67.52
2019-02-14T08:42:49.821Z,68.74
2019-02-14T08:45:21.193Z,68.53
2019-02-14T08:47:51.835Z,68.25
2019-02-14T08:50:22.762Z,68.11
2019-02-14T08:52:53.665Z,67.96
2019-02-14T08:55:24.493Z,67.74
2019-02-14T08:57:55.294Z,67.73
2019-02-14T09:00:26.037Z,67.84
2019-02-14T09:02:56.732Z,67.58
2019-02-14T09:05:27.342Z,67.32
2019-02-14T09:07:58.501Z,67.21
2019-02-14T09:10:29.283Z,67.12
2019-02-14T09:13:00.208Z,67.39
2019-02-14T09:15:30.902Z,67.33
2019-02-14T09:18:01.810Z,65.90
2019-02-14T09:20:32.809Z,67.35
2019-02-14T09:23:03.843Z,67.43
2019-02-14T09:25:34.712Z,67.54
2019-02-14T09:28:05.140Z,67.50
2019-02-14T09:30:35.793Z,67.58
2019-02-14T09:33:06.791Z,67.58
2019-02-14T09:35:37.692Z,67.68
2019-02-14T09:38:07.995Z,67.53
2019-02-14T09:40:38.895Z,67.66
2019-02-14T09:43:09.752Z,67.30
2019-02-14T09:45:40.854Z,66.68
2019-02-14T09:48:11.939Z,65.73
2019-02-14T09:50:42.757Z,66.48
2019-02-14T09:53:13.544Z,66.50
2019-02-14T09:55:44.626Z,66.55
2019-02-14T09:58:15.085Z,65.82
2019-02-14T10:00:45.513Z,66.35
2019-02-14T10:03:17.249Z,66.12
2019-02-14T10:05:47.993Z,65.94
2019-02-14T10:08:18.830Z,65.71
2019-02-14T10:10:50.019Z,65.64
2019-02-14T10:13:20.605Z,64.08
2019-02-14T10:15:51.203Z,65.16
2019-02-14T10:18:21.699Z,65.31
2019-02-14T10:20:52.280Z,64.60
2019-02-14T10:23:22.826Z,64.54
2019-02-14T10:25:54.356Z,64.45
2019-02-14T10:28:25.060Z,63.79
2019-02-14T10:30:55.883Z,63.32
2019-02-14T10:33:26.704Z,63.18
2019-02-14T10:35:57.110Z,62.50
2019-02-14T10:38:27.563Z,62.67
2019-02-14T10:40:58.594Z,62.80
2019-02-14T10:43:29.560Z,63.01
2019-02-14T10:46:00.134Z,62.31
2019-02-14T10:48:30.758Z,62.04
2019-02-14T10:51:01.405Z,61.54
2019-02-14T10:53:32.305Z,61.10
2019-02-14T10:56:03.380Z,62.08
2019-02-14T10:58:34.389Z,62.11
2019-02-14T11:01:05.111Z,61.82
2019-02-14T11:03:35.800Z,61.55
2019-02-14T11:06:06.526Z,61.81
2019-02-14T11:08:37.558Z,61.54
2019-02-14T11:11:08.306Z,61.09
2019-02-14T11:13:38.749Z,61.46
2019-02-14T11:16:09.868Z,61.37
2019-02-14T11:18:44.190Z,61.62
2019-02-14T11:21:13.124Z,61.27
2019-02-14T11:23:43.878Z,61.37
2019-02-14T11:26:14.558Z,61.30
2019-02-14T11:28:45.548Z,61.14
2019-02-14T11:31:16.275Z,60.94
2019-02-14T11:33:46.995Z,61.08
2019-02-14T11:36:18.710Z,61.06
2019-02-14T11:38:50.253Z,61.67
2019-02-14T11:41:20.759Z,62.08
2019-02-14T11:43:51.537Z,61.87
2019-02-14T11:46:22.411Z,61.95
2019-02-14T11:48:53.357Z,61.20
2019-02-14T11:51:24.229Z,61.40
2019-02-14T11:53:55.075Z,61.86
2019-02-14T11:56:26.261Z,61.92
2019-02-14T11:58:58.076Z,61.37
2019-02-14T12:01:29.069Z,62.04
2019-02-14T12:03:59.907Z,62.04
2019-02-14T12:06:31.676Z,61.42
2019-02-14T12:09:04.290Z,61.79
2019-02-14T12:11:35.582Z,62.21
2019-02-14T12:14:06.230Z,62.36
2019-02-14T12:16:36.889Z,62.74
2019-02-14T12:19:07.535Z,62.58
2019-02-14T12:21:38.234Z,63.42
2019-02-14T12:24:09.225Z,63.56
2019-02-14T12:26:39.792Z,63.56
2019-02-14T12:29:10.620Z,63.58
2019-02-14T12:31:41.620Z,62.97
2019-02-14T12:34:12.371Z,63.55
2019-02-14T12:36:43.090Z,63.27
2019-02-14T12:39:13.956Z,63.22
2019-02-14T12:41:44.704Z,63.49
2019-02-14T12:44:15.565Z,63.76
2019-02-14T12:46:46.421Z,63.68
2019-02-14T12:49:17.189Z,63.66
2019-02-14T12:51:48.020Z,63.83
2019-02-14T12:54:18.657Z,63.86
2019-02-14T12:56:49.245Z,64.02
2019-02-14T12:59:20.195Z,64.28
2019-02-14T13:01:50.835Z,64.64
2019-02-14T13:04:21.569Z,64.89
2019-02-14T13:06:52.269Z,65.08
2019-02-14T13:09:22.951Z,65.02
2019-02-14T13:11:53.644Z,65.15
2019-02-14T13:14:24.226Z,64.83
2019-02-14T13:16:54.823Z,65.02
2019-02-14T13:19:25.760Z,65.26
2019-02-14T13:21:56.560Z,65.29
2019-02-14T13:24:27.184Z,64.42
2019-02-14T13:26:57.871Z,64.79
2019-02-14T13:29:29.671Z,64.82
2019-02-14T13:32:00.293Z,64.47
2019-02-14T13:34:30.979Z,64.49
2019-02-14T13:37:02.277Z,64.51
2019-02-14T13:39:32.903Z,64.67
2019-02-14T13:42:03.472Z,64.82
2019-02-14T13:44:34.271Z,64.75
2019-02-14T13:47:05.004Z,64.71
2019-02-14T13:49:35.626Z,64.71
2019-02-14T13:52:06.479Z,65.23
2019-02-14T13:54:37.920Z,65.58
2019-02-14T13:57:08.519Z,65.59
2019-02-14T13:59:39.720Z,65.82
2019-02-14T14:02:10.378Z,66.04
2019-02-14T14:04:41.019Z,66.23
2019-02-14T14:07:12.122Z,66.14
2019-02-14T14:09:42.624Z,66.35
2019-02-14T14:12:13.744Z,66.50
2019-02-14T14:14:44.546Z,66.63
2019-02-14T14:17:15.107Z,66.55
2019-02-14T14:19:45.950Z,66.70
2019-02-14T14:22:16.710Z,66.79
2019-02-14T14:24:47.223Z,66.72
2019-02-14T14:27:17.959Z,66.73
2019-02-14T14:29:48.477Z,66.94
2019-02-14T14:32:18.852Z,67.02
2019-02-14T14:34:49.576Z,67.24
2019-02-14T14:37:20.326Z,67.30
2019-02-14T14:39:51.697Z,67.52
2019-02-14T14:42:40.830Z,67.27
2019-02-14T14:45:14.907Z,67.22
2019-02-14T14:47:45.870Z,67.21
2019-02-14T14:50:16.364Z,67.32
2019-02-14T14:52:46.898Z,67.41
2019-02-14T14:55:18.151Z,67.44
2019-02-14T14:57:48.949Z,67.37
2019-02-14T15:00:19.714Z,67.45
2019-02-14T15:02:50.386Z,67.30
2019-02-14T15:05:22.273Z,67.32
2019-02-14T15:07:53.314Z,67.46
2019-02-14T15:10:24.225Z,67.50
2019-02-14T15:12:54.769Z,67.31
2019-02-14T15:15:25.564Z,67.32
2019-02-14T15:17:56.583Z,67.09
2019-02-14T15:20:30.598Z,67.12
2019-02-14T15:23:01.183Z,67.29
2019-02-14T15:25:31.924Z,67.44
2019-02-14T15:28:03.009Z,67.53
2019-02-14T15:30:33.936Z,67.44
2019-02-14T15:33:05.777Z,67.36
2019-02-14T15:35:36.810Z,67.12
2019-02-14T15:38:09.767Z,66.95
2019-02-14T15:40:42.079Z,66.69
2019-02-14T15:43:13.110Z,66.55
2019-02-14T15:45:44.490Z,67.01
2019-02-14T15:48:15.379Z,66.95
2019-02-14T15:50:46.298Z,67.28
2019-02-14T15:53:18.770Z,67.44
2019-02-14T15:55:49.446Z,67.37
2019-02-14T15:58:20.643Z,67.48
2019-02-14T16:00:51.822Z,67.59
2019-02-14T16:03:23.780Z,67.82
2019-02-14T16:05:54.925Z,67.84
2019-02-14T16:08:26.053Z,68.13
2019-02-14T16:10:56.769Z,68.13
2019-02-14T16:13:29.270Z,68.15
2019-02-14T16:16:00.798Z,68.27
2019-02-14T16:18:32.759Z,68.34
2019-02-14T16:21:04.064Z,68.25
2019-02-14T16:23:36.233Z,68.14
2019-02-14T16:26:06.995Z,68.19
2019-02-14T16:28:38.150Z,68.32
2019-02-14T16:31:10.387Z,68.52
2019-02-14T16:33:41.199Z,68.30
2019-02-14T16:36:12.195Z,68.08
2019-02-14T16:38:43.869Z,68.32
2019-02-14T16:41:14.789Z,68.50
2019-02-14T16:43:45.712Z,68.37
2019-02-14T16:46:16.131Z,68.76
2019-02-14T16:48:46.704Z,69.28
2019-02-14T16:51:55.174Z,69.66
2019-02-14T16:54:27.307Z,69.90
2019-02-14T16:56:57.983Z,70.14
2019-02-14T16:59:28.831Z,70.13
2019-02-14T17:01:59.634Z,70.29
2019-02-14T17:04:30.224Z,70.33
2019-02-14T17:07:01.095Z,70.19
2019-02-14T17:09:31.950Z,70.05
2019-02-14T17:12:02.807Z,69.93
2019-02-14T17:14:33.154Z,69.73
2019-02-14T17:17:04.628Z,69.74
2019-02-14T17:19:35.354Z,69.82
2019-02-14T17:22:05.967Z,69.98
2019-02-14T17:24:37.103Z,69.89
2019-02-14T17:27:07.646Z,69.99
2019-02-14T17:29:38.496Z,70.09
2019-02-14T17:32:12.037Z,69.92
2019-02-14T17:34:42.540Z,70.05
2019-02-14T17:37:13.277Z,70.22
2019-02-14T17:39:44.429Z,70.31
2019-02-14T17:42:15.875Z,70.18
2019-02-14T17:44:46.691Z,70.32
2019-02-14T17:47:17.689Z,70.33
2019-02-14T17:49:48.465Z,70.50
2019-02-14T17:52:19.060Z,70.47
2019-02-14T17:54:50.742Z,70.46
2019-02-14T17:57:21.867Z,70.25
2019-02-14T17:59:53.723Z,70.20
2019-02-14T18:02:31.000Z,70.01
2019-02-14T18:05:01.802Z,70.18
2019-02-14T18:07:33.312Z,70.39
2019-02-14T18:10:04.352Z,70.48
2019-02-14T18:12:35.382Z,70.58
2019-02-14T18:15:09.039Z,70.66
2019-02-14T18:17:39.750Z,70.52
2019-02-14T18:20:11.380Z,70.67
2019-02-14T18:22:42.622Z,70.61
2019-02-14T18:25:13.239Z,70.94
2019-02-14T18:27:44.033Z,71.08
2019-02-14T18:30:14.643Z,70.89
2019-02-14T18:32:46.888Z,71.07
2019-02-14T18:35:17.684Z,71.15
2019-02-14T18:37:48.616Z,71.20
2019-02-14T18:40:19.655Z,71.08
2019-02-14T18:42:52.381Z,71.20
2019-02-14T18:45:22.991Z,71.06
2019-02-14T18:47:54.004Z,71.26
2019-02-14T18:50:25.098Z,71.45
2019-02-14T18:52:56.590Z,71.54
2019-02-14T18:55:27.203Z,71.54
2019-02-14T18:57:57.850Z,71.69
2019-02-14T19:00:29.623Z,71.75
2019-02-14T19:03:00.859Z,71.58
2019-02-14T19:05:31.747Z,71.80
2019-02-14T19:08:03.073Z,71.78
2019-02-14T19:10:33.774Z,71.58
2019-02-14T19:13:04.749Z,71.52
2019-02-14T19:15:35.587Z,71.66
2019-02-14T19:18:06.654Z,71.83
2019-02-14T19:20:37.263Z,71.88
2019-02-14T19:23:08.457Z,71.79
2019-02-14T19:25:39.330Z,71.81
2019-02-14T19:28:10.392Z,71.81
2019-02-14T19:30:41.138Z,71.99
2019-02-14T19:33:12.942Z,71.88
2019-02-14T19:35:43.747Z,71.91
2019-02-14T19:38:15.899Z,72.13
2019-02-14T19:40:46.593Z,72.35
2019-02-14T19:43:17.656Z,72.57
2019-02-14T19:45:48.539Z,72.52
2019-02-14T19:48:19.531Z,72.12
2019-02-14T19:50:50.099Z,72.72
2019-02-14T19:53:20.788Z,72.78
2019-02-14T19:55:51.577Z,72.75
2019-02-14T19:58:22.544Z,72.75
2019-02-14T20:00:53.380Z,72.76
2019-02-14T20:03:24.003Z,72.68
2019-02-14T20:05:54.436Z,72.76
2019-02-14T20:08:25.221Z,72.74
2019-02-14T20:11:01.566Z,72.69
2019-02-14T20:13:32.575Z,72.63
2019-02-14T20:16:05.571Z,72.74
2019-02-14T20:18:36.665Z,72.75
2019-02-14T20:21:07.533Z,72.81
2019-02-14T20:23:38.355Z,72.75
2019-02-14T20:26:10.443Z,72.96
2019-02-14T20:28:42.344Z,73.03
2019-02-14T20:31:14.751Z,73.07
2019-02-14T20:33:45.959Z,73.09
2019-02-14T20:36:16.737Z,73.28
2019-02-14T20:38:47.316Z,73.22
2019-02-14T20:41:19.123Z,73.25
2019-02-14T20:44:02.348Z,73.58
2019-02-14T20:46:34.186Z,73.74
2019-02-14T20:49:05.374Z,73.95
2019-02-14T20:51:38.511Z,74.09
2019-02-14T20:54:11.276Z,74.18
2019-02-14T20:56:42.559Z,74.22
2019-02-14T20:59:13.164Z,74.34
2019-02-14T21:01:43.665Z,74.40
2019-02-14T21:04:14.228Z,74.46
2019-02-14T21:06:44.862Z,74.37
2019-02-14T21:09:15.696Z,74.94
2019-02-14T21:11:54.219Z,74.95
2019-02-14T21:14:18.554Z,75.07
2019-02-14T21:16:49.193Z,75.17
2019-02-14T21:19:19.705Z,75.23
2019-02-14T21:21:51.014Z,75.45
2019-02-14T21:24:21.407Z,75.60
2019-02-14T21:26:52.206Z,75.64
2019-02-14T21:29:22.823Z,75.74
2019-02-14T21:31:53.196Z,75.97
2019-02-14T21:34:24.621Z,76.00
2019-02-14T21:36:55.616Z,76.05
2019-02-14T21:39:26.195Z,76.15
2019-02-14T21:42:17.714Z,76.23
2019-02-14T21:44:29.110Z,76.28
2019-02-14T21:47:01.347Z,76.43
2019-02-14T21:49:31.809Z,76.54
2019-02-14T21:52:02.289Z,76.68
2019-02-14T21:54:36.344Z,76.76
2019-02-14T21:57:07.060Z,76.84
2019-02-14T21:59:37.606Z,76.90
2019-02-14T22:02:08.256Z,77.16
2019-02-14T22:04:38.744Z,77.32
2019-02-14T22:07:09.365Z,77.34
2019-02-14T22:09:39.843Z,77.47
2019-02-14T22:12:10.482Z,77.50
2019-02-14T22:14:41.080Z,77.55
2019-02-14T22:17:11.829Z,77.47
2019-02-14T22:19:43.015Z,77.59
2019-02-14T22:22:13.602Z,77.65
2019-02-14T22:24:44.065Z,77.56
2019-02-14T22:27:14.716Z,77.49
2019-02-14T22:29:45.173Z,77.58
2019-02-14T22:32:15.655Z,77.62
2019-02-14T22:34:47.098Z,77.76
2019-02-14T22:37:17.706Z,77.89
2019-02-14T22:39:48.080Z,77.94
2019-02-14T22:42:18.710Z,78.02
2019-02-14T22:44:49.312Z,77.96
2019-02-14T22:47:20.422Z,77.90
2019-02-14T22:49:51.600Z,77.83
2019-02-14T22:52:22.223Z,77.91
2019-02-14T22:54:52.691Z,77.92
2019-02-14T22:57:22.971Z,77.86
2019-02-14T22:59:53.413Z,77.93
2019-02-14T23:02:23.938Z,77.98
2019-02-14T23:04:54.782Z,77.96
2019-02-14T23:07:25.577Z,77.78
2019-02-14T23:09:57.650Z,77.82
2019-02-14T23:12:28.867Z,77.83
2019-02-14T23:14:59.457Z,77.93
2019-02-14T23:17:30.904Z,77.95
2019-02-14T23:20:01.527Z,77.97
2019-02-14T23:22:31.938Z,78.19
2019-02-14T23:25:03.111Z,78.27
2019-02-14T23:27:33.735Z,78.20
2019-02-14T23:30:04.800Z,78.40
2019-02-14T23:32:35.270Z,78.44
2019-02-14T23:35:05.749Z,78.41
2019-02-14T23:37:36.577Z,78.40
2019-02-14T23:40:07.136Z,78.43
2019-02-14T23:42:37.724Z,78.55
2019-02-14T23:45:08.738Z,78.64
2019-02-14T23:47:39.241Z,78.67
2019-02-14T23:50:09.770Z,78.62
2019-02-14T23:52:40.877Z,78.53
2019-02-14T23:55:11.515Z,78.60
2019-02-14T23:57:42.652Z,78.44
